Terminal Aerodrome Forecast
Issued by NWS

Home | Current Version | Previous Version | Text Only | Print | Product List | Glossary On
Versions: 1 2 3 4 5 6 7 8 9 10 11 12
000
FTUS44 KLIX 312340
TAFMSY
TAF
KMSY 312340Z 0100/0124 19009KT P6SM SCT060 SCT180 SCT250
     FM010300 20006KT P6SM FEW130
     FM011700 32006KT P6SM FEW040=

USA.gov is the U.S. government's official web portal to all federal, state and local government web resources and services.